createdAt,value
2023-11-15T00:02:07.930Z,96142.84
2023-11-15T00:04:35.538Z,96142.28
2023-11-15T00:07:03.140Z,96143.31
2023-11-15T00:09:32.273Z,96150.44
2023-11-15T00:12:01.320Z,96151.56
2023-11-15T00:14:29.091Z,96127.19
2023-11-15T00:16:57.440Z,96123.22
2023-11-15T00:19:25.157Z,96153.00
2023-11-15T00:21:52.767Z,96143.09
2023-11-15T00:24:20.512Z,96147.94
2023-11-15T00:26:48.354Z,96161.03
2023-11-15T00:29:17.381Z,96159.41
2023-11-15T00:31:44.965Z,96157.25
2023-11-15T00:34:12.595Z,96154.06
2023-11-15T00:36:40.908Z,96149.84
2023-11-15T00:39:09.931Z,96168.53
2023-11-15T00:41:37.801Z,96173.56
2023-11-15T00:44:08.392Z,96162.22
2023-11-15T00:46:37.305Z,96177.34
2023-11-15T00:49:05.111Z,96157.16
2023-11-15T00:51:32.770Z,96183.09
2023-11-15T00:54:00.458Z,96168.63
2023-11-15T00:56:28.223Z,96179.31
2023-11-15T00:58:57.821Z,96199.34
2023-11-15T01:01:26.712Z,96191.88
2023-11-15T01:03:58.157Z,96184.47
2023-11-15T01:06:26.392Z,96192.56
2023-11-15T01:08:55.931Z,96198.06
2023-11-15T01:11:24.643Z,96206.66
2023-11-15T01:13:52.388Z,96210.53
2023-11-15T01:16:20.286Z,96215.72
2023-11-15T01:18:47.990Z,96225.88
2023-11-15T01:21:19.277Z,96223.13
2023-11-15T01:23:47.147Z,96240.81
2023-11-15T01:26:15.878Z,96235.59
2023-11-15T01:28:43.558Z,96228.00
2023-11-15T01:31:11.418Z,96247.81
2023-11-15T01:33:39.079Z,96240.63
2023-11-15T01:36:07.875Z,96229.63
2023-11-15T01:38:38.522Z,96234.59
2023-11-15T01:41:06.932Z,96249.25
2023-11-15T01:43:34.648Z,96239.13
2023-11-15T01:46:02.478Z,96252.75
2023-11-15T01:48:30.361Z,96269.34
2023-11-15T01:50:58.018Z,96261.22
2023-11-15T01:53:26.234Z,96274.19
2023-11-15T01:55:55.680Z,96267.53
2023-11-15T01:58:26.561Z,96273.69
2023-11-15T02:00:55.861Z,96280.66
2023-11-15T02:03:23.684Z,96285.75
2023-11-15T02:05:53.392Z,96289.81
2023-11-15T02:08:21.378Z,96290.13
2023-11-15T02:10:50.340Z,96289.56
2023-11-15T02:13:24.001Z,96290.97
2023-11-15T02:15:53.358Z,96286.16
2023-11-15T02:18:23.136Z,96292.00
2023-11-15T02:20:51.080Z,96307.44
2023-11-15T02:23:21.285Z,96280.94
2023-11-15T02:25:51.896Z,96316.19
2023-11-15T02:28:19.845Z,96305.56
2023-11-15T02:30:47.567Z,96306.84
2023-11-15T02:33:15.673Z,96312.28
2023-11-15T02:35:43.352Z,96313.34
2023-11-15T02:38:11.005Z,96333.38
2023-11-15T02:40:39.859Z,96327.25
2023-11-15T02:43:14.019Z,96335.28
2023-11-15T02:45:42.610Z,96336.31
2023-11-15T02:48:10.936Z,96337.34
2023-11-15T02:50:38.709Z,96346.03
2023-11-15T02:53:06.468Z,96350.41
2023-11-15T02:55:34.223Z,96350.53
2023-11-15T02:58:02.109Z,96352.97
2023-11-15T03:00:31.962Z,96351.56
2023-11-15T03:02:59.688Z,96363.56
2023-11-15T03:05:28.762Z,96370.22
2023-11-15T03:07:56.543Z,96375.56
2023-11-15T03:10:24.460Z,96353.34
2023-11-15T03:12:52.213Z,96392.47
2023-11-15T03:15:20.322Z,96388.63
2023-11-15T03:17:49.372Z,96405.19
2023-11-15T03:20:17.268Z,96395.19
2023-11-15T03:22:45.095Z,96406.72
2023-11-15T03:25:12.746Z,96419.97
2023-11-15T03:27:40.366Z,96417.94
2023-11-15T03:30:09.375Z,96426.75
2023-11-15T03:32:37.026Z,96430.03
2023-11-15T03:35:06.887Z,96438.88
2023-11-15T03:37:34.471Z,96436.41
2023-11-15T03:40:02.144Z,96432.94
2023-11-15T03:42:29.838Z,96431.78
2023-11-15T03:44:59.195Z,96440.28
2023-11-15T03:47:26.961Z,96453.31
2023-11-15T03:49:54.585Z,96451.22
2023-11-15T03:52:23.510Z,96473.78
2023-11-15T03:54:51.184Z,96463.09
2023-11-15T03:57:18.776Z,96478.59
2023-11-15T03:59:46.478Z,96489.53
2023-11-15T04:02:14.144Z,96489.31
2023-11-15T04:04:41.936Z,96487.09
2023-11-15T04:07:10.000Z,96502.09
2023-11-15T04:09:39.878Z,96496.28
2023-11-15T04:12:07.628Z,96504.06
2023-11-15T04:14:35.936Z,96512.00
2023-11-15T04:17:03.620Z,96517.47
2023-11-15T04:19:31.181Z,96536.72
2023-11-15T04:22:08.800Z,96522.06
2023-11-15T04:24:43.923Z,96544.94
2023-11-15T04:27:11.569Z,96545.63
2023-11-15T04:29:39.406Z,96557.28
2023-11-15T04:32:07.717Z,96557.03
2023-11-15T04:34:35.291Z,96559.72
2023-11-15T04:37:03.730Z,96564.00
2023-11-15T04:39:32.046Z,96557.88
2023-11-15T04:42:00.985Z,96577.66
2023-11-15T04:44:29.048Z,96570.91
2023-11-15T04:46:56.687Z,96581.41
2023-11-15T04:49:24.342Z,96582.91
2023-11-15T04:51:52.775Z,96593.53
2023-11-15T04:54:20.356Z,96588.84
2023-11-15T04:56:48.041Z,96596.09
2023-11-15T04:59:16.994Z,96595.50
2023-11-15T05:01:46.893Z,96608.88
2023-11-15T05:04:15.818Z,96608.63
2023-11-15T05:06:43.935Z,96614.81
2023-11-15T05:09:11.528Z,96608.53
2023-11-15T05:11:39.182Z,96626.75
2023-11-15T05:14:07.632Z,96631.66
2023-11-15T05:16:36.631Z,96631.78
2023-11-15T05:19:04.785Z,96635.81
2023-11-15T05:21:32.470Z,96644.69
2023-11-15T05:24:00.422Z,96646.31
2023-11-15T05:26:28.320Z,96649.19
2023-11-15T05:28:55.925Z,96660.28
2023-11-15T05:31:24.187Z,96667.03
2023-11-15T05:33:53.152Z,96673.53
2023-11-15T05:36:20.753Z,96681.56
2023-11-15T05:38:48.415Z,96687.72
2023-11-15T05:41:16.061Z,96673.50
2023-11-15T05:43:43.652Z,96687.13
2023-11-15T05:46:11.308Z,96685.50
2023-11-15T05:48:39.083Z,96682.63
2023-11-15T05:51:08.838Z,96687.97
2023-11-15T05:53:36.471Z,96688.09
2023-11-15T05:56:04.249Z,96698.78
2023-11-15T05:58:31.862Z,96698.41
2023-11-15T06:00:59.446Z,96701.47
2023-11-15T06:03:27.130Z,96701.81
2023-11-15T06:05:54.817Z,96705.75
2023-11-15T06:08:25.088Z,96706.22
2023-11-15T06:10:52.730Z,96709.94
2023-11-15T06:13:20.343Z,96701.91
2023-11-15T06:15:47.931Z,96697.94
2023-11-15T06:18:15.545Z,96706.81
2023-11-15T06:20:43.803Z,96705.41
2023-11-15T06:23:11.801Z,96705.41
2023-11-15T06:25:43.046Z,96712.38
2023-11-15T06:28:12.599Z,96715.41
2023-11-15T06:30:40.374Z,96716.69
2023-11-15T06:33:08.190Z,96730.78
2023-11-15T06:35:36.980Z,96718.78
2023-11-15T06:38:06.103Z,96731.47
2023-11-15T06:40:34.182Z,96734.59
2023-11-15T06:43:03.622Z,96732.53
2023-11-15T06:45:33.483Z,96734.25
2023-11-15T06:48:01.790Z,96737.75
2023-11-15T06:50:29.596Z,96738.81
2023-11-15T06:52:57.705Z,96742.06
2023-11-15T06:55:25.294Z,96741.59
2023-11-15T06:57:52.907Z,96744.50
2023-11-15T07:00:23.113Z,96761.16
2023-11-15T07:02:50.831Z,96750.31
2023-11-15T07:05:19.148Z,96769.72
2023-11-15T07:07:47.416Z,96767.41
2023-11-15T07:10:16.291Z,96764.25
2023-11-15T07:12:43.987Z,96772.06
2023-11-15T07:15:15.394Z,96781.50
2023-11-15T07:17:44.588Z,96774.28
2023-11-15T07:20:14.528Z,96782.44
2023-11-15T07:22:41.976Z,96782.19
2023-11-15T07:25:10.582Z,96789.19
2023-11-15T07:27:39.414Z,96796.84
2023-11-15T07:30:09.586Z,96788.47
2023-11-15T07:32:37.420Z,96789.88
2023-11-15T07:35:07.052Z,96792.34
2023-11-15T07:37:35.629Z,96806.53
2023-11-15T07:40:04.141Z,96805.94
2023-11-15T07:42:33.522Z,96809.31
2023-11-15T07:45:03.200Z,96819.22
2023-11-15T07:47:35.390Z,96820.72
2023-11-15T07:50:04.448Z,96815.97
2023-11-15T07:52:33.509Z,96823.75
2023-11-15T07:55:01.923Z,96816.31
2023-11-15T07:57:29.996Z,96834.00
2023-11-15T07:59:58.146Z,96840.75
2023-11-15T08:02:25.897Z,96832.50
2023-11-15T08:04:53.533Z,96843.78
2023-11-15T08:07:22.801Z,96844.00
2023-11-15T08:09:51.769Z,96844.38
2023-11-15T08:12:19.562Z,96845.09
2023-11-15T08:14:47.202Z,96845.59
2023-11-15T08:17:15.736Z,96845.94
2023-11-15T08:19:47.979Z,96844.53
2023-11-15T08:22:17.582Z,96834.41
2023-11-15T08:24:47.970Z,96841.16
2023-11-15T08:27:17.169Z,96850.22
2023-11-15T08:29:44.790Z,96850.22
2023-11-15T08:32:13.918Z,96853.97
2023-11-15T08:34:42.601Z,96853.75
2023-11-15T08:37:10.434Z,96864.09
2023-11-15T08:39:38.137Z,96851.53
2023-11-15T08:42:07.407Z,96869.44
2023-11-15T08:44:38.436Z,96861.31
2023-11-15T08:47:06.169Z,96863.72
2023-11-15T08:49:33.773Z,96871.88
2023-11-15T08:52:02.028Z,96870.72
2023-11-15T08:54:29.660Z,96877.13
2023-11-15T08:56:57.301Z,96883.28
2023-11-15T08:59:27.736Z,96879.00
2023-11-15T09:01:57.300Z,96869.88
2023-11-15T09:04:25.025Z,96884.56
2023-11-15T09:06:53.851Z,96882.00
2023-11-15T09:09:22.167Z,96883.75
2023-11-15T09:11:52.255Z,96882.47
2023-11-15T09:14:19.919Z,96857.44
2023-11-15T09:16:47.589Z,96882.91
2023-11-15T09:19:22.193Z,96887.81
2023-11-15T09:21:50.717Z,96895.63
2023-11-15T09:24:22.640Z,96902.03
2023-11-15T09:26:50.666Z,96900.63
2023-11-15T09:29:18.320Z,96903.91
2023-11-15T09:31:46.198Z,96894.00
2023-11-15T09:34:13.933Z,96898.28
2023-11-15T09:36:43.967Z,96901.69
2023-11-15T09:39:11.817Z,96903.19
2023-11-15T09:41:39.510Z,96903.81
2023-11-15T09:44:10.565Z,96897.00
2023-11-15T09:46:39.209Z,96909.03
2023-11-15T09:49:08.551Z,96906.44
2023-11-15T09:51:36.841Z,96918.47
2023-11-15T09:54:12.960Z,96912.84
2023-11-15T09:56:47.541Z,96898.41
2023-11-15T09:59:16.569Z,96906.06
2023-11-15T10:01:45.585Z,96908.75
2023-11-15T10:04:23.492Z,96902.53
2023-11-15T10:06:52.990Z,96896.56
2023-11-15T10:09:36.853Z,96891.19
2023-11-15T10:12:07.126Z,96893.16
2023-11-15T10:14:36.385Z,96885.06
2023-11-15T10:17:07.653Z,96887.56
2023-11-15T10:19:35.590Z,96886.56
2023-11-15T10:22:05.637Z,96881.56
2023-11-15T10:24:36.279Z,96885.91
2023-11-15T10:27:08.753Z,96878.91
2023-11-15T10:29:38.896Z,96880.91
2023-11-15T10:32:07.506Z,96885.47
2023-11-15T10:34:36.205Z,96898.25
2023-11-15T10:37:06.728Z,96885.09
2023-11-15T10:39:41.742Z,96892.00
2023-11-15T10:42:11.285Z,96901.41
2023-11-15T10:44:39.593Z,96898.44
2023-11-15T10:47:08.804Z,96901.50
2023-11-15T10:49:40.342Z,96909.13
2023-11-15T10:52:09.973Z,96903.75
2023-11-15T10:54:40.397Z,96895.50
2023-11-15T10:57:09.954Z,96908.19
2023-11-15T10:59:39.862Z,96899.22
2023-11-15T11:02:08.718Z,96909.91
2023-11-15T11:04:37.769Z,96907.63
2023-11-15T11:07:11.175Z,96912.16
2023-11-15T11:09:48.238Z,96911.59
2023-11-15T11:12:18.215Z,96906.16
2023-11-15T11:14:47.378Z,96887.94
2023-11-15T11:17:38.387Z,96907.13
2023-11-15T11:20:26.235Z,96920.81
2023-11-15T11:23:17.897Z,96922.69
2023-11-15T11:25:49.369Z,96916.56
2023-11-15T11:28:17.575Z,96931.38
2023-11-15T11:31:20.119Z,96932.75
2023-11-15T11:34:09.212Z,96926.88
2023-11-15T11:36:46.609Z,96928.88
2023-11-15T11:39:14.844Z,96917.56
2023-11-15T11:41:44.413Z,96929.72
2023-11-15T11:44:13.810Z,96929.97
2023-11-15T11:46:41.485Z,96925.34
2023-11-15T11:49:09.393Z,96940.84
2023-11-15T11:51:37.006Z,96943.06
2023-11-15T11:54:04.944Z,96953.91
2023-11-15T11:56:33.267Z,96945.13
2023-11-15T11:59:13.180Z,96952.25
2023-11-15T12:01:48.770Z,96955.19
2023-11-15T12:04:16.632Z,96955.00
2023-11-15T12:06:44.306Z,96963.41
2023-11-15T12:09:12.835Z,96964.03
2023-11-15T12:11:41.706Z,96959.00
2023-11-15T12:14:14.236Z,96951.44
2023-11-15T12:16:41.887Z,96969.38
2023-11-15T12:19:11.116Z,96970.44
2023-11-15T12:21:40.010Z,96970.41
2023-11-15T12:24:11.171Z,96980.69
2023-11-15T12:26:46.617Z,96975.19
2023-11-15T12:29:23.365Z,96961.19
2023-11-15T12:31:52.469Z,96964.56
2023-11-15T12:34:20.570Z,96967.69
2023-11-15T12:36:48.468Z,96965.81
2023-11-15T12:39:17.620Z,96963.31
2023-11-15T12:41:47.846Z,96975.94
2023-11-15T12:44:15.946Z,96964.50
2023-11-15T12:46:45.450Z,96942.97
2023-11-15T12:49:15.465Z,96960.75
2023-11-15T12:51:47.289Z,96962.59
2023-11-15T12:54:15.701Z,96963.16
2023-11-15T12:56:44.403Z,96960.94
2023-11-15T12:59:15.397Z,96968.22
2023-11-15T13:01:47.676Z,96960.50
2023-11-15T13:04:16.563Z,96963.59
2023-11-15T13:06:44.517Z,96971.75
2023-11-15T13:09:15.964Z,96965.19
2023-11-15T13:11:45.148Z,96965.09
2023-11-15T13:14:16.956Z,96972.63
2023-11-15T13:16:44.663Z,96968.75
2023-11-15T13:19:13.615Z,96975.31
2023-11-15T13:21:44.843Z,96974.00
2023-11-15T13:24:12.542Z,96962.50
2023-11-15T13:26:41.264Z,96971.03
2023-11-15T13:29:10.008Z,96965.66
2023-11-15T13:31:37.600Z,96970.06
2023-11-15T13:34:05.712Z,96964.38
2023-11-15T13:36:35.982Z,96953.72
2023-11-15T13:39:06.418Z,96969.25
2023-11-15T13:41:34.089Z,96962.28
2023-11-15T13:44:01.667Z,96965.53
2023-11-15T13:46:29.959Z,96959.50
2023-11-15T13:49:02.989Z,96970.47
2023-11-15T13:51:31.550Z,96980.19
2023-11-15T13:54:01.075Z,96981.63
2023-11-15T13:56:29.202Z,97008.13
2023-11-15T13:58:57.263Z,97031.63
2023-11-15T14:01:25.422Z,97031.38
2023-11-15T14:03:53.165Z,97042.28
2023-11-15T14:06:20.831Z,97038.00
2023-11-15T14:08:56.054Z,97053.97
2023-11-15T14:11:30.617Z,97055.69
2023-11-15T14:13:58.803Z,97059.03
2023-11-15T14:16:26.743Z,97065.00
2023-11-15T14:18:55.917Z,97057.16
2023-11-15T14:21:24.689Z,97056.63
2023-11-15T14:23:52.284Z,97059.75
2023-11-15T14:26:20.568Z,97058.34
2023-11-15T14:28:51.167Z,97068.66
2023-11-15T14:31:19.458Z,97060.63
2023-11-15T14:33:47.279Z,97053.03
2023-11-15T14:36:17.583Z,97063.72
2023-11-15T14:38:47.505Z,97044.47
2023-11-15T14:41:17.509Z,97055.94
2023-11-15T14:43:46.594Z,97035.03
2023-11-15T14:46:16.661Z,97061.72
2023-11-15T14:48:44.583Z,97068.69
2023-11-15T14:51:13.316Z,97069.34
2023-11-15T14:53:53.499Z,97060.75
2023-11-15T14:56:21.327Z,97080.59
2023-11-15T14:58:53.361Z,97069.44
2023-11-15T15:01:24.877Z,97061.59
2023-11-15T15:03:52.977Z,97060.78
2023-11-15T15:06:20.870Z,97083.13
2023-11-15T15:08:48.742Z,97093.38
2023-11-15T15:11:16.495Z,97099.34
2023-11-15T15:13:44.417Z,97103.44
2023-11-15T15:16:12.997Z,97099.72
2023-11-15T15:18:42.757Z,97110.41
2023-11-15T15:21:11.113Z,97109.00
2023-11-15T15:23:38.995Z,97119.09
2023-11-15T15:26:06.977Z,97126.97
2023-11-15T15:28:34.694Z,97133.97
2023-11-15T15:31:02.382Z,97134.38
2023-11-15T15:33:29.764Z,97138.31
2023-11-15T15:35:59.040Z,97132.59
2023-11-15T15:38:27.013Z,97121.06
2023-11-15T15:40:55.433Z,97115.38
2023-11-15T15:43:23.144Z,97124.44
2023-11-15T15:45:51.079Z,97133.13
2023-11-15T15:48:19.091Z,97139.28
2023-11-15T15:50:49.518Z,97129.44
2023-11-15T15:53:18.571Z,97145.72
2023-11-15T15:55:46.414Z,97137.91
2023-11-15T15:58:16.423Z,97136.06
2023-11-15T16:00:44.151Z,97140.00
2023-11-15T16:03:11.917Z,97148.81
2023-11-15T16:05:39.698Z,97148.97
2023-11-15T16:08:07.993Z,97160.06
2023-11-15T16:10:36.988Z,97128.75
2023-11-15T16:13:04.994Z,97162.06
2023-11-15T16:15:32.786Z,97166.16
2023-11-15T16:18:00.555Z,97173.78
2023-11-15T16:20:28.462Z,97162.03
2023-11-15T16:22:57.771Z,97159.56
2023-11-15T16:25:25.558Z,97153.63
2023-11-15T16:27:54.817Z,97164.34
2023-11-15T16:30:24.812Z,97165.75
2023-11-15T16:32:54.158Z,97167.28
2023-11-15T16:35:22.042Z,97173.69
2023-11-15T16:37:50.509Z,97171.88
2023-11-15T16:40:18.503Z,97146.97
2023-11-15T16:42:46.331Z,97175.63
2023-11-15T16:45:16.450Z,97180.56
2023-11-15T16:47:44.210Z,97189.56
2023-11-15T16:50:11.910Z,97199.47
2023-11-15T16:52:40.368Z,97202.78
2023-11-15T16:55:13.470Z,97208.94
2023-11-15T16:57:41.410Z,97217.53
2023-11-15T17:00:10.679Z,97200.72
2023-11-15T17:02:40.203Z,97198.72
2023-11-15T17:05:08.396Z,97206.34
2023-11-15T17:07:36.173Z,97213.75
2023-11-15T17:10:04.246Z,97220.16
2023-11-15T17:12:31.972Z,97223.66
2023-11-15T17:15:00.745Z,97230.03
2023-11-15T17:17:29.701Z,97235.59
2023-11-15T17:19:59.065Z,97223.44
2023-11-15T17:22:26.825Z,97226.09
2023-11-15T17:24:54.536Z,97229.19
2023-11-15T17:27:22.373Z,97222.22
2023-11-15T17:29:51.922Z,97222.00
2023-11-15T17:32:19.786Z,97235.78
2023-11-15T17:34:47.529Z,97218.97
2023-11-15T17:37:16.678Z,97222.63
2023-11-15T17:39:44.879Z,97231.66
2023-11-15T17:42:12.981Z,97229.19
2023-11-15T17:44:40.753Z,97240.09
2023-11-15T17:47:08.436Z,97230.84
2023-11-15T17:49:36.299Z,97239.91
2023-11-15T17:52:10.929Z,97237.44
2023-11-15T17:54:40.030Z,97240.50
2023-11-15T17:57:07.929Z,97240.31
2023-11-15T17:59:35.735Z,97235.13
2023-11-15T18:02:05.307Z,97235.78
2023-11-15T18:04:33.097Z,97244.97
2023-11-15T18:07:00.863Z,97236.81
2023-11-15T18:09:28.611Z,97246.84
2023-11-15T18:11:57.844Z,97246.84
2023-11-15T18:14:27.017Z,97248.09
2023-11-15T18:16:56.589Z,97226.13
2023-11-15T18:19:24.371Z,97258.97
2023-11-15T18:21:53.019Z,97265.34
2023-11-15T18:24:20.987Z,97268.41
2023-11-15T18:26:48.845Z,97263.50
2023-11-15T18:29:17.898Z,97265.16
2023-11-15T18:31:46.085Z,97259.81
2023-11-15T18:34:13.961Z,97261.00
2023-11-15T18:36:44.630Z,97238.06
2023-11-15T18:39:15.699Z,97263.06
2023-11-15T18:41:44.279Z,97271.53
2023-11-15T18:44:12.645Z,97250.56
2023-11-15T18:46:41.904Z,97266.19
2023-11-15T18:49:10.136Z,97269.25
2023-11-15T18:51:37.869Z,97275.19
2023-11-15T18:54:07.560Z,97274.16
2023-11-15T18:56:35.301Z,97272.31
2023-11-15T18:59:03.081Z,97278.25
2023-11-15T19:01:31.014Z,97277.22
2023-11-15T19:04:00.898Z,97274.34
2023-11-15T19:06:30.288Z,97280.94
2023-11-15T19:08:58.964Z,97278.66
2023-11-15T19:11:27.765Z,97282.34
2023-11-15T19:13:58.727Z,97280.13
2023-11-15T19:16:28.903Z,97272.50
2023-11-15T19:18:56.817Z,97274.34
2023-11-15T19:21:26.169Z,97275.38
2023-11-15T19:23:53.972Z,97275.44
2023-11-15T19:26:25.301Z,97283.41
2023-11-15T19:28:53.201Z,97290.22
2023-11-15T19:31:21.402Z,97295.13
2023-11-15T19:33:49.807Z,97291.66
2023-11-15T19:36:17.578Z,97296.56
2023-11-15T19:38:46.616Z,97274.59
2023-11-15T19:41:19.718Z,97297.78
2023-11-15T19:43:47.508Z,97301.69
2023-11-15T19:46:18.632Z,97298.22
2023-11-15T19:48:47.404Z,97295.50
2023-11-15T19:51:15.238Z,97288.16
2023-11-15T19:53:42.921Z,97297.53
2023-11-15T19:56:11.849Z,97285.03
2023-11-15T19:58:39.468Z,97289.97
2023-11-15T20:01:14.284Z,97292.00
2023-11-15T20:03:44.088Z,97296.75
2023-11-15T20:06:12.393Z,97295.91
2023-11-15T20:08:40.878Z,97292.03
2023-11-15T20:11:11.964Z,97304.38
2023-11-15T20:13:42.095Z,97306.78
2023-11-15T20:16:10.350Z,97301.25
2023-11-15T20:18:41.045Z,97309.28
2023-11-15T20:21:09.135Z,97305.81
2023-11-15T20:23:38.534Z,97319.59
2023-11-15T20:26:07.761Z,97315.88
2023-11-15T20:28:39.244Z,97315.88
2023-11-15T20:31:14.318Z,97322.44
2023-11-15T20:33:42.515Z,97331.47
2023-11-15T20:36:11.532Z,97324.72
2023-11-15T20:38:39.400Z,97319.56
2023-11-15T20:41:08.436Z,97335.41
2023-11-15T20:43:37.118Z,97325.94
2023-11-15T20:46:16.820Z,97327.41
2023-11-15T20:48:48.158Z,97330.88
2023-11-15T20:51:16.043Z,97328.19
2023-11-15T20:53:44.838Z,97331.28
2023-11-15T20:56:12.639Z,97321.22
2023-11-15T20:58:41.462Z,97334.78
2023-11-15T21:01:10.092Z,97328.59
2023-11-15T21:03:37.838Z,97328.41
2023-11-15T21:06:09.909Z,97337.22
2023-11-15T21:08:38.506Z,97332.06
2023-11-15T21:11:06.941Z,97340.50
2023-11-15T21:13:35.974Z,97328.00
2023-11-15T21:16:07.431Z,97336.41
2023-11-15T21:18:35.203Z,97337.00
2023-11-15T21:21:04.245Z,97340.91
2023-11-15T21:23:33.507Z,97339.69
2023-11-15T21:26:01.110Z,97330.22
2023-11-15T21:28:28.691Z,97324.88
2023-11-15T21:30:57.215Z,97324.69
2023-11-15T21:33:25.481Z,97325.09
2023-11-15T21:35:53.376Z,97327.97
2023-11-15T21:38:22.810Z,97325.28
2023-11-15T21:40:52.026Z,97322.03
2023-11-15T21:43:19.821Z,97317.72
2023-11-15T21:45:48.616Z,97321.41
2023-11-15T21:48:16.576Z,97274.41
2023-11-15T21:50:45.520Z,97326.13
2023-11-15T21:53:13.622Z,97330.44
2023-11-15T21:55:41.235Z,97334.34
2023-11-15T21:58:10.590Z,97334.34
2023-11-15T22:00:38.564Z,97326.97
2023-11-15T22:03:06.350Z,97331.28
2023-11-15T22:05:34.082Z,97328.19
2023-11-15T22:08:02.065Z,97325.31
2023-11-15T22:10:30.448Z,97316.28
2023-11-15T22:12:58.016Z,97316.72
2023-11-15T22:15:29.039Z,97319.78
2023-11-15T22:17:56.756Z,97318.16
2023-11-15T22:20:24.424Z,97306.84
2023-11-15T22:22:52.101Z,97310.53
2023-11-15T22:25:20.125Z,97306.03
2023-11-15T22:27:47.717Z,97305.84
2023-11-15T22:30:16.011Z,97288.16
2023-11-15T22:32:45.135Z,97299.25
2023-11-15T22:35:12.936Z,97296.16
2023-11-15T22:37:40.631Z,97296.38
2023-11-15T22:40:09.271Z,97300.31
2023-11-15T22:42:38.252Z,97294.34
2023-11-15T22:45:06.929Z,97305.44
2023-11-15T22:47:34.761Z,97301.13
2023-11-15T22:50:05.722Z,97305.03
2023-11-15T22:52:34.606Z,97303.38
2023-11-15T22:55:02.305Z,97300.69
2023-11-15T22:57:30.010Z,97301.94
2023-11-15T22:59:57.849Z,97299.06
2023-11-15T23:02:25.651Z,97294.72
2023-11-15T23:04:53.699Z,97288.16
2023-11-15T23:07:22.888Z,97293.50
2023-11-15T23:09:51.255Z,97290.63
2023-11-15T23:12:19.063Z,97291.22
2023-11-15T23:14:46.923Z,97287.53
2023-11-15T23:17:14.630Z,97289.59
2023-11-15T23:19:42.346Z,97286.72
2023-11-15T23:22:10.016Z,97292.06
2023-11-15T23:24:40.814Z,97293.28
2023-11-15T23:27:11.006Z,97288.16
2023-11-15T23:29:38.828Z,97285.50
2023-11-15T23:32:07.158Z,97289.78
2023-11-15T23:34:34.931Z,97286.31
2023-11-15T23:37:03.470Z,97275.44
2023-11-15T23:39:31.876Z,97266.84
2023-11-15T23:42:01.006Z,97272.19
2023-11-15T23:44:28.722Z,97272.78
2023-11-15T23:46:58.092Z,97274.41
2023-11-15T23:49:25.770Z,97271.53
2023-11-15T23:51:53.361Z,97274.84
2023-11-15T23:54:20.991Z,97269.72
2023-11-15T23:56:48.607Z,97260.28
2023-11-15T23:59:21.914Z,97230.56
